createdAt,value
2023-02-06T00:01:23.676Z,13.65
2023-02-06T00:03:50.709Z,13.67
2023-02-06T00:06:17.281Z,13.66
2023-02-06T00:08:44.045Z,13.69
2023-02-06T00:11:11.702Z,13.69
2023-02-06T00:13:38.613Z,13.70
2023-02-06T00:16:05.612Z,13.68
2023-02-06T00:18:32.256Z,13.68
2023-02-06T00:20:58.843Z,13.67
2023-02-06T00:23:25.566Z,13.63
2023-02-06T00:25:52.102Z,13.63
2023-02-06T00:28:18.778Z,13.61
2023-02-06T00:30:48.679Z,13.60
2023-02-06T00:33:15.596Z,13.57
2023-02-06T00:35:42.293Z,13.56
2023-02-06T00:38:10.370Z,13.50
2023-02-06T00:40:37.112Z,13.49
2023-02-06T00:43:03.827Z,13.45
2023-02-06T00:45:30.566Z,13.40
2023-02-06T00:47:57.157Z,13.38
2023-02-06T00:50:23.755Z,13.38
2023-02-06T00:52:50.470Z,13.37
2023-02-06T00:55:17.034Z,13.36
2023-02-06T00:57:43.701Z,13.35
2023-02-06T01:00:10.768Z,13.36
2023-02-06T01:02:37.469Z,13.35
2023-02-06T01:05:04.186Z,13.33
2023-02-06T01:07:30.814Z,13.30
2023-02-06T01:09:57.373Z,13.30
2023-02-06T01:12:23.944Z,13.27
2023-02-06T01:14:50.757Z,13.22
2023-02-06T01:17:17.332Z,13.19
2023-02-06T01:19:43.962Z,13.17
2023-02-06T01:22:11.126Z,13.15
2023-02-06T01:24:37.677Z,13.15
2023-02-06T01:27:04.332Z,13.15
2023-02-06T01:29:32.407Z,13.15
2023-02-06T01:31:58.973Z,13.14
2023-02-06T01:34:25.678Z,13.15
2023-02-06T01:36:52.469Z,13.13
2023-02-06T01:39:19.037Z,13.10
2023-02-06T01:41:45.701Z,13.07
2023-02-06T01:44:22.863Z,13.08
2023-02-06T01:46:52.145Z,13.09
2023-02-06T01:49:20.554Z,13.11
2023-02-06T01:51:47.313Z,13.12
2023-02-06T01:54:13.933Z,13.13
2023-02-06T01:56:41.754Z,13.12
2023-02-06T01:59:08.492Z,13.10
2023-02-06T02:01:35.141Z,13.10
2023-02-06T02:04:03.147Z,13.09
2023-02-06T02:06:29.861Z,13.08
2023-02-06T02:08:58.259Z,13.02
2023-02-06T02:11:32.377Z,13.01
2023-02-06T02:13:59.030Z,12.99
2023-02-06T02:16:28.079Z,12.97
2023-02-06T02:19:13.681Z,12.93
2023-02-06T02:21:59.033Z,12.89
2023-02-06T02:24:31.911Z,12.86
2023-02-06T02:27:17.380Z,12.86
2023-02-06T02:29:47.357Z,12.88
2023-02-06T02:32:18.394Z,12.91
2023-02-06T02:35:03.919Z,12.86
2023-02-06T02:37:36.662Z,12.87
2023-02-06T02:40:08.385Z,12.78
2023-02-06T02:42:43.468Z,12.74
2023-02-06T02:45:14.025Z,12.74
2023-02-06T02:48:01.034Z,12.72
2023-02-06T02:50:28.103Z,12.73
2023-02-06T02:52:54.663Z,12.67
2023-02-06T02:55:22.673Z,12.65
2023-02-06T02:57:50.018Z,12.62
2023-02-06T03:00:17.780Z,12.63
2023-02-06T03:02:44.913Z,12.62
2023-02-06T03:05:11.921Z,12.57
2023-02-06T03:07:54.018Z,12.62
2023-02-06T03:10:26.617Z,12.66
2023-02-06T03:12:53.210Z,12.65
2023-02-06T03:15:38.829Z,12.57
2023-02-06T03:18:11.533Z,12.55
2023-02-06T03:20:39.637Z,12.59
2023-02-06T03:23:06.227Z,12.54
2023-02-06T03:25:36.945Z,12.53
2023-02-06T03:28:04.316Z,12.52
2023-02-06T03:30:31.050Z,12.52
2023-02-06T03:33:00.449Z,12.51
2023-02-06T03:35:29.572Z,12.49
2023-02-06T03:37:56.253Z,12.45
2023-02-06T03:40:22.922Z,12.42
2023-02-06T03:42:50.921Z,12.42
2023-02-06T03:45:23.266Z,12.41
2023-02-06T03:47:49.820Z,12.41
2023-02-06T03:50:16.575Z,12.38
2023-02-06T03:52:47.273Z,12.39
2023-02-06T03:55:14.869Z,12.40
2023-02-06T03:57:42.233Z,12.37
2023-02-06T04:00:09.178Z,12.32
2023-02-06T04:02:35.836Z,12.32
2023-02-06T04:05:02.470Z,12.25
2023-02-06T04:07:29.976Z,12.22
2023-02-06T04:09:56.561Z,12.24
2023-02-06T04:12:23.506Z,12.23
2023-02-06T04:14:50.109Z,12.26
2023-02-06T04:17:28.175Z,12.29
2023-02-06T04:20:04.067Z,12.27
2023-02-06T04:22:30.685Z,12.21
2023-02-06T04:24:57.346Z,12.18
2023-02-06T04:27:24.411Z,12.19
2023-02-06T04:29:51.050Z,12.20
2023-02-06T04:32:17.683Z,12.20
2023-02-06T04:34:44.427Z,12.24
2023-02-06T04:37:12.586Z,12.27
2023-02-06T04:39:39.210Z,12.25
2023-02-06T04:42:06.295Z,12.20
2023-02-06T04:44:33.842Z,12.16
2023-02-06T04:47:00.832Z,12.15
2023-02-06T04:49:28.011Z,12.09
2023-02-06T04:51:54.555Z,12.11
2023-02-06T04:54:21.192Z,12.11
2023-02-06T04:56:47.906Z,12.12
2023-02-06T04:59:14.524Z,12.15
2023-02-06T05:01:41.115Z,12.13
2023-02-06T05:04:07.924Z,12.12
2023-02-06T05:06:34.515Z,12.05
2023-02-06T05:09:01.208Z,12.08
2023-02-06T05:11:28.001Z,12.12
2023-02-06T05:13:54.634Z,12.13
2023-02-06T05:16:21.223Z,12.14
2023-02-06T05:18:47.978Z,12.12
2023-02-06T05:21:14.870Z,12.13
2023-02-06T05:23:41.437Z,12.09
2023-02-06T05:26:08.165Z,12.12
2023-02-06T05:28:34.727Z,12.17
2023-02-06T05:31:01.945Z,12.18
2023-02-06T05:33:28.829Z,12.19
2023-02-06T05:35:55.611Z,12.19
2023-02-06T05:38:22.171Z,12.20
2023-02-06T05:40:50.739Z,12.20
2023-02-06T05:43:17.400Z,12.20
2023-02-06T05:45:43.952Z,12.19
2023-02-06T05:48:10.576Z,12.19
2023-02-06T05:50:37.122Z,12.19
2023-02-06T05:53:03.865Z,12.16
2023-02-06T05:55:30.591Z,12.12
2023-02-06T05:57:57.305Z,12.08
2023-02-06T06:00:23.943Z,12.06
2023-02-06T06:02:50.557Z,12.00
2023-02-06T06:05:17.188Z,11.99
2023-02-06T06:07:43.754Z,11.99
2023-02-06T06:10:10.432Z,11.98
2023-02-06T06:12:37.191Z,11.97
2023-02-06T06:15:03.808Z,11.98
2023-02-06T06:17:30.438Z,11.89
2023-02-06T06:19:57.125Z,11.88
2023-02-06T06:22:23.683Z,11.92
2023-02-06T06:24:50.399Z,11.96
2023-02-06T06:27:17.090Z,11.97
2023-02-06T06:29:43.653Z,11.95
2023-02-06T06:32:10.202Z,11.92
2023-02-06T06:34:36.982Z,11.90
2023-02-06T06:37:03.589Z,11.85
2023-02-06T06:39:30.230Z,11.82
2023-02-06T06:41:56.921Z,11.81
2023-02-06T06:44:23.743Z,11.79
2023-02-06T06:46:50.290Z,11.78
2023-02-06T06:49:17.054Z,11.78
2023-02-06T06:51:43.681Z,11.78
2023-02-06T06:54:10.305Z,11.76
2023-02-06T06:56:36.912Z,11.70
2023-02-06T06:59:03.545Z,11.65
2023-02-06T07:01:30.104Z,11.63
2023-02-06T07:03:58.621Z,11.65
2023-02-06T07:06:25.225Z,11.55
2023-02-06T07:08:51.863Z,11.50
2023-02-06T07:11:18.805Z,11.41
2023-02-06T07:13:45.609Z,11.35
2023-02-06T07:16:12.402Z,11.31
2023-02-06T07:18:40.174Z,11.25
2023-02-06T07:21:08.764Z,11.28
2023-02-06T07:23:39.101Z,11.26
2023-02-06T07:26:05.738Z,11.26
2023-02-06T07:28:32.542Z,11.30
2023-02-06T07:31:02.574Z,11.35
2023-02-06T07:33:29.349Z,11.39
2023-02-06T07:35:55.958Z,11.43
2023-02-06T07:38:22.588Z,11.47
2023-02-06T07:40:49.366Z,11.47
2023-02-06T07:43:15.919Z,11.44
2023-02-06T07:45:42.652Z,11.41
2023-02-06T07:48:09.451Z,11.36
2023-02-06T07:50:36.178Z,11.39
2023-02-06T07:53:02.947Z,11.43
2023-02-06T07:55:29.758Z,11.46
2023-02-06T07:57:56.550Z,11.53
2023-02-06T08:00:23.359Z,11.56
2023-02-06T08:02:50.117Z,11.58
2023-02-06T08:05:16.689Z,11.63
2023-02-06T08:07:43.249Z,11.75
2023-02-06T08:10:10.039Z,11.94
2023-02-06T08:12:36.664Z,12.14
2023-02-06T08:15:04.029Z,12.33
2023-02-06T08:17:30.751Z,12.53
2023-02-06T08:19:57.402Z,12.75
2023-02-06T08:22:23.953Z,12.98
2023-02-06T08:24:50.650Z,13.23
2023-02-06T08:27:17.206Z,13.51
2023-02-06T08:29:44.054Z,13.77
2023-02-06T08:32:10.819Z,14.02
2023-02-06T08:34:38.648Z,14.23
2023-02-06T08:37:05.339Z,14.40
2023-02-06T08:39:32.169Z,14.63
2023-02-06T08:41:58.755Z,14.86
2023-02-06T08:44:25.364Z,15.11
2023-02-06T08:46:58.840Z,15.34
2023-02-06T08:49:31.317Z,15.63
2023-02-06T08:51:59.656Z,15.90
2023-02-06T08:54:26.363Z,16.17
2023-02-06T08:56:53.843Z,16.41
2023-02-06T08:59:20.642Z,16.69
2023-02-06T09:01:49.478Z,16.92
2023-02-06T09:04:16.222Z,17.08
2023-02-06T09:06:43.755Z,17.22
2023-02-06T09:09:10.721Z,17.47
2023-02-06T09:11:37.330Z,17.69
2023-02-06T09:14:04.498Z,17.93
2023-02-06T09:16:33.567Z,18.20
2023-02-06T09:19:01.558Z,18.53
2023-02-06T09:21:32.421Z,18.81
2023-02-06T09:24:00.441Z,18.97
2023-02-06T09:26:28.681Z,19.19
2023-02-06T09:28:58.885Z,19.45
2023-02-06T09:31:26.233Z,19.69
2023-02-06T09:33:54.310Z,19.94
2023-02-06T09:36:21.369Z,20.18
2023-02-06T09:38:48.884Z,20.40
2023-02-06T09:41:19.699Z,20.64
2023-02-06T09:43:51.194Z,20.92
2023-02-06T09:46:21.359Z,21.14
2023-02-06T09:48:47.941Z,21.37
2023-02-06T09:51:14.579Z,21.61
2023-02-06T09:54:00.105Z,21.88
2023-02-06T09:56:35.320Z,22.11
2023-02-06T09:59:05.836Z,22.27
2023-02-06T10:01:44.877Z,22.42
2023-02-06T10:04:14.039Z,22.59
2023-02-06T10:06:59.586Z,22.79
2023-02-06T10:09:32.334Z,22.98
2023-02-06T10:12:00.226Z,22.94
2023-02-06T10:14:39.141Z,22.77
2023-02-06T10:17:26.076Z,22.69
2023-02-06T10:20:05.302Z,22.63
2023-02-06T10:22:34.632Z,22.46
2023-02-06T10:25:04.307Z,22.48
2023-02-06T10:27:30.868Z,22.58
2023-02-06T10:29:57.503Z,22.63
2023-02-06T10:32:27.182Z,22.60
2023-02-06T10:34:56.990Z,22.47
2023-02-06T10:37:47.842Z,22.34
2023-02-06T10:40:36.226Z,22.00
2023-02-06T10:43:02.856Z,21.86
2023-02-06T10:45:39.021Z,21.69
2023-02-06T10:48:10.764Z,21.67
2023-02-06T10:50:37.962Z,21.83
2023-02-06T10:53:06.490Z,21.87
2023-02-06T10:55:37.762Z,21.84
2023-02-06T10:58:10.683Z,21.71
2023-02-06T11:00:37.753Z,21.83
2023-02-06T11:03:07.828Z,21.92
2023-02-06T11:05:35.588Z,22.15
2023-02-06T11:08:10.054Z,22.40
2023-02-06T11:10:36.923Z,22.79
2023-02-06T11:13:27.325Z,23.18
2023-02-06T11:15:57.560Z,23.26
2023-02-06T11:18:40.500Z,23.56
2023-02-06T11:21:10.348Z,23.53
2023-02-06T11:23:37.016Z,23.42
2023-02-06T11:26:06.796Z,23.42
2023-02-06T11:28:34.618Z,23.73
2023-02-06T11:31:02.722Z,23.72
2023-02-06T11:33:35.399Z,23.69
2023-02-06T11:36:04.238Z,23.91
2023-02-06T11:38:31.140Z,23.98
2023-02-06T11:40:57.958Z,24.10
2023-02-06T11:43:25.490Z,23.95
2023-02-06T11:46:07.825Z,23.74
2023-02-06T11:48:36.218Z,23.52
2023-02-06T11:51:03.073Z,23.43
2023-02-06T11:53:29.659Z,23.34
2023-02-06T11:56:04.169Z,23.38
2023-02-06T11:58:30.982Z,23.47
2023-02-06T12:00:58.936Z,23.41
2023-02-06T12:03:27.252Z,23.39
2023-02-06T12:05:53.961Z,23.22
2023-02-06T12:08:21.746Z,23.17
2023-02-06T12:10:54.633Z,23.20
2023-02-06T12:13:23.734Z,23.31
2023-02-06T12:15:51.106Z,23.31
2023-02-06T12:18:19.224Z,23.37
2023-02-06T12:21:02.185Z,23.63
2023-02-06T12:23:31.438Z,24.07
2023-02-06T12:25:59.554Z,24.31
2023-02-06T12:28:38.450Z,24.57
2023-02-06T12:31:10.632Z,24.60
2023-02-06T12:33:40.631Z,24.95
2023-02-06T12:36:12.159Z,25.28
2023-02-06T12:38:54.398Z,25.79
2023-02-06T12:41:36.462Z,26.46
2023-02-06T12:44:17.153Z,27.15
2023-02-06T12:46:43.706Z,27.44
2023-02-06T12:49:18.519Z,27.71
2023-02-06T12:51:49.645Z,27.92
2023-02-06T12:54:36.522Z,28.21
2023-02-06T12:57:22.437Z,28.33
2023-02-06T12:59:57.451Z,28.57
2023-02-06T13:02:36.129Z,29.00
2023-02-06T13:05:05.982Z,29.46
2023-02-06T13:07:36.167Z,29.68
2023-02-06T13:10:08.457Z,29.91
2023-02-06T13:12:35.104Z,30.25
2023-02-06T13:15:02.780Z,30.47
2023-02-06T13:17:38.772Z,30.69
2023-02-06T13:20:12.430Z,30.91
2023-02-06T13:22:40.861Z,30.90
2023-02-06T13:25:26.052Z,30.76
2023-02-06T13:27:53.173Z,30.98
2023-02-06T13:30:28.870Z,31.25
2023-02-06T13:33:14.129Z,31.53
2023-02-06T13:35:56.709Z,31.77
2023-02-06T13:38:26.387Z,31.01
2023-02-06T13:41:11.293Z,29.85
2023-02-06T13:43:38.422Z,28.48
2023-02-06T13:46:12.738Z,27.21
2023-02-06T13:48:58.213Z,26.10
2023-02-06T13:51:43.827Z,25.12
2023-02-06T13:54:21.773Z,24.18
2023-02-06T13:56:54.576Z,23.45
2023-02-06T13:59:23.264Z,22.84
2023-02-06T14:01:49.845Z,22.28
2023-02-06T14:04:18.200Z,21.83
2023-02-06T14:06:48.385Z,21.45
2023-02-06T14:09:44.467Z,21.13
2023-02-06T14:12:39.006Z,20.78
2023-02-06T14:15:24.849Z,20.49
2023-02-06T14:18:03.876Z,20.24
2023-02-06T14:20:37.524Z,19.98
2023-02-06T14:23:06.064Z,19.72
2023-02-06T14:25:35.993Z,19.51
2023-02-06T14:28:23.244Z,19.35
2023-02-06T14:30:59.116Z,19.20
2023-02-06T14:33:34.914Z,19.08
2023-02-06T14:36:04.588Z,18.97
2023-02-06T14:38:34.488Z,18.86
2023-02-06T14:41:03.333Z,18.76
2023-02-06T14:43:30.903Z,18.66
2023-02-06T14:46:06.716Z,18.57
2023-02-06T14:48:40.743Z,18.47
2023-02-06T14:51:07.634Z,18.40
2023-02-06T14:53:38.193Z,18.34
2023-02-06T14:56:23.633Z,18.29
2023-02-06T14:58:51.445Z,18.23
2023-02-06T15:01:18.021Z,18.17
2023-02-06T15:03:45.609Z,18.13
2023-02-06T15:06:13.187Z,18.10
2023-02-06T15:08:47.154Z,18.07
2023-02-06T15:11:18.936Z,18.04
2023-02-06T15:13:49.124Z,17.99
2023-02-06T15:16:15.689Z,17.97
2023-02-06T15:18:42.249Z,17.94
2023-02-06T15:21:09.599Z,17.91
2023-02-06T15:23:39.227Z,17.90
2023-02-06T15:26:05.953Z,17.86
2023-02-06T15:28:33.268Z,17.83
2023-02-06T15:31:00.304Z,17.80
2023-02-06T15:33:30.042Z,17.77
2023-02-06T15:35:57.365Z,17.75
2023-02-06T15:38:24.499Z,17.73
2023-02-06T15:40:53.560Z,17.70
2023-02-06T15:43:21.301Z,17.67
2023-02-06T15:45:48.503Z,17.65
2023-02-06T15:48:18.333Z,17.64
2023-02-06T15:51:05.286Z,17.63
2023-02-06T15:53:36.015Z,17.62
2023-02-06T15:56:02.956Z,17.61
2023-02-06T15:58:30.206Z,17.59
2023-02-06T16:00:57.111Z,17.57
2023-02-06T16:03:24.705Z,17.54
2023-02-06T16:05:55.474Z,17.51
2023-02-06T16:08:30.207Z,17.49
2023-02-06T16:11:01.460Z,17.46
2023-02-06T16:13:28.409Z,17.44
2023-02-06T16:16:02.459Z,17.40
2023-02-06T16:18:38.817Z,17.39
2023-02-06T16:21:12.151Z,17.33
2023-02-06T16:24:03.392Z,17.29
2023-02-06T16:26:30.830Z,17.24
2023-02-06T16:29:09.662Z,17.20
2023-02-06T16:31:37.488Z,17.19
2023-02-06T16:34:18.980Z,17.17
2023-02-06T16:36:45.728Z,17.12
2023-02-06T16:39:12.389Z,17.12
2023-02-06T16:41:39.386Z,17.12
2023-02-06T16:44:13.190Z,17.11
2023-02-06T16:46:39.831Z,17.09
2023-02-06T16:49:06.972Z,17.07
2023-02-06T16:51:33.625Z,17.05
2023-02-06T16:54:00.338Z,17.03
2023-02-06T16:56:26.944Z,17.03
2023-02-06T16:58:53.566Z,17.01
2023-02-06T17:01:25.504Z,16.99
2023-02-06T17:03:52.649Z,16.97
2023-02-06T17:06:20.869Z,16.94
2023-02-06T17:08:48.191Z,16.93
2023-02-06T17:11:14.889Z,16.91
2023-02-06T17:13:41.604Z,16.87
2023-02-06T17:16:10.351Z,16.85
2023-02-06T17:18:36.911Z,16.82
2023-02-06T17:21:03.686Z,16.78
2023-02-06T17:23:30.258Z,16.71
2023-02-06T17:25:56.894Z,16.67
2023-02-06T17:28:23.526Z,16.63
2023-02-06T17:30:51.176Z,16.58
2023-02-06T17:33:17.900Z,16.51
2023-02-06T17:35:44.709Z,16.47
2023-02-06T17:38:11.970Z,16.43
2023-02-06T17:40:40.241Z,16.37
2023-02-06T17:43:07.370Z,16.32
2023-02-06T17:45:35.086Z,16.30
2023-02-06T17:48:01.832Z,16.27
2023-02-06T17:50:28.610Z,16.24
2023-02-06T17:52:56.262Z,16.21
2023-02-06T17:55:23.325Z,16.15
2023-02-06T17:57:50.145Z,16.10
2023-02-06T18:00:17.291Z,16.05
2023-02-06T18:02:43.996Z,16.03
2023-02-06T18:05:10.985Z,16.00
2023-02-06T18:07:37.938Z,15.97
2023-02-06T18:10:04.908Z,15.94
2023-02-06T18:12:31.539Z,15.92
2023-02-06T18:14:58.170Z,15.88
2023-02-06T18:17:24.900Z,15.85
2023-02-06T18:19:52.371Z,15.82
2023-02-06T18:22:19.562Z,15.81
2023-02-06T18:24:46.521Z,15.77
2023-02-06T18:27:13.211Z,15.73
2023-02-06T18:29:50.444Z,15.70
2023-02-06T18:32:17.764Z,15.67
2023-02-06T18:34:44.348Z,15.65
2023-02-06T18:37:11.006Z,15.63
2023-02-06T18:39:37.844Z,15.62
2023-02-06T18:42:23.097Z,15.58
2023-02-06T18:44:49.870Z,15.55
2023-02-06T18:47:16.750Z,15.52
2023-02-06T18:49:43.538Z,15.50
2023-02-06T18:52:10.340Z,15.44
2023-02-06T18:54:36.976Z,15.43
2023-02-06T18:57:03.812Z,15.38
2023-02-06T18:59:30.832Z,15.36
2023-02-06T19:01:57.413Z,15.33
2023-02-06T19:04:24.117Z,15.31
2023-02-06T19:06:50.757Z,15.26
2023-02-06T19:09:19.921Z,15.25
2023-02-06T19:11:46.765Z,15.24
2023-02-06T19:14:15.290Z,15.23
2023-02-06T19:16:44.683Z,15.22
2023-02-06T19:19:12.121Z,15.20
2023-02-06T19:21:38.714Z,15.19
2023-02-06T19:24:05.938Z,15.15
2023-02-06T19:26:33.324Z,15.12
2023-02-06T19:29:00.031Z,15.10
2023-02-06T19:31:26.959Z,15.06
2023-02-06T19:33:54.530Z,15.03
2023-02-06T19:36:21.320Z,15.02
2023-02-06T19:38:48.301Z,15.00
2023-02-06T19:41:16.090Z,14.99
2023-02-06T19:43:42.814Z,14.98
2023-02-06T19:46:14.316Z,14.97
2023-02-06T19:48:44.170Z,14.98
2023-02-06T19:51:11.560Z,14.96
2023-02-06T19:53:45.331Z,14.96
2023-02-06T19:56:12.396Z,14.96
2023-02-06T19:58:38.968Z,14.93
2023-02-06T20:01:09.307Z,14.93
2023-02-06T20:03:36.095Z,14.95
2023-02-06T20:06:06.585Z,14.92
2023-02-06T20:08:33.594Z,14.91
2023-02-06T20:11:04.187Z,14.90
2023-02-06T20:13:30.746Z,14.89
2023-02-06T20:16:03.515Z,14.85
2023-02-06T20:18:36.257Z,14.79
2023-02-06T20:21:03.089Z,14.77
2023-02-06T20:23:30.060Z,14.73
2023-02-06T20:25:56.743Z,14.71
2023-02-06T20:28:23.717Z,14.71
2023-02-06T20:30:50.460Z,14.73
2023-02-06T20:33:17.547Z,14.69
2023-02-06T20:35:45.842Z,14.64
2023-02-06T20:38:12.611Z,14.66
2023-02-06T20:40:43.783Z,14.65
2023-02-06T20:43:10.688Z,14.63
2023-02-06T20:45:37.241Z,14.56
2023-02-06T20:48:03.901Z,14.53
2023-02-06T20:50:31.234Z,14.55
2023-02-06T20:52:57.854Z,14.54
2023-02-06T20:55:24.407Z,14.54
2023-02-06T20:57:51.144Z,14.56
2023-02-06T21:00:18.228Z,14.57
2023-02-06T21:02:44.877Z,14.56
2023-02-06T21:05:11.589Z,14.56
2023-02-06T21:07:39.221Z,14.46
2023-02-06T21:10:05.946Z,14.41
2023-02-06T21:12:32.785Z,14.38
2023-02-06T21:14:59.393Z,14.34
2023-02-06T21:17:25.944Z,14.33
2023-02-06T21:19:52.562Z,14.35
2023-02-06T21:22:19.116Z,14.36
2023-02-06T21:24:45.733Z,14.36
2023-02-06T21:27:12.353Z,14.36
2023-02-06T21:29:38.925Z,14.37
2023-02-06T21:32:13.600Z,14.36
2023-02-06T21:34:40.847Z,14.37
2023-02-06T21:37:07.629Z,14.35
2023-02-06T21:39:34.259Z,14.34
2023-02-06T21:42:01.762Z,14.32
2023-02-06T21:44:29.110Z,14.29
2023-02-06T21:46:56.277Z,14.26
2023-02-06T21:49:23.468Z,14.26
2023-02-06T21:51:53.640Z,14.26
2023-02-06T21:54:20.296Z,14.26
2023-02-06T21:56:46.915Z,14.24
2023-02-06T21:59:13.723Z,14.17
2023-02-06T22:01:41.484Z,14.17
2023-02-06T22:04:08.678Z,14.17
2023-02-06T22:06:38.550Z,14.15
2023-02-06T22:09:07.840Z,14.13
2023-02-06T22:11:38.409Z,14.13
2023-02-06T22:14:05.978Z,14.07
2023-02-06T22:16:32.542Z,13.98
2023-02-06T22:19:00.925Z,13.95
2023-02-06T22:21:28.308Z,13.88
2023-02-06T22:23:58.767Z,13.90
2023-02-06T22:26:25.534Z,13.86
2023-02-06T22:28:52.111Z,13.80
2023-02-06T22:31:19.834Z,13.78
2023-02-06T22:33:46.657Z,13.80
2023-02-06T22:36:14.113Z,13.73
2023-02-06T22:38:40.889Z,13.72
2023-02-06T22:41:08.357Z,13.71
2023-02-06T22:43:35.922Z,13.66
2023-02-06T22:46:02.601Z,13.66
2023-02-06T22:48:29.600Z,13.64
2023-02-06T22:50:56.306Z,13.67
2023-02-06T22:53:32.148Z,13.68
2023-02-06T22:56:17.528Z,13.65
2023-02-06T22:58:44.307Z,13.65
2023-02-06T23:01:10.956Z,13.66
2023-02-06T23:03:37.750Z,13.66
2023-02-06T23:06:04.827Z,13.59
2023-02-06T23:08:31.403Z,13.58
2023-02-06T23:10:57.957Z,13.54
2023-02-06T23:13:24.915Z,13.51
2023-02-06T23:15:51.655Z,13.49
2023-02-06T23:18:18.303Z,13.45
2023-02-06T23:20:45.097Z,13.42
2023-02-06T23:23:11.670Z,13.35
2023-02-06T23:25:44.487Z,13.33
2023-02-06T23:28:11.248Z,13.34
2023-02-06T23:30:37.823Z,13.33
2023-02-06T23:33:04.560Z,13.35
2023-02-06T23:35:34.892Z,13.36
2023-02-06T23:38:01.670Z,13.37
2023-02-06T23:40:28.380Z,13.37
2023-02-06T23:42:55.483Z,13.39
2023-02-06T23:45:22.147Z,13.38
2023-02-06T23:47:48.776Z,13.37
2023-02-06T23:50:15.615Z,13.35
2023-02-06T23:52:42.153Z,13.34
2023-02-06T23:55:08.818Z,13.34
2023-02-06T23:57:36.090Z,13.31
